Piedmont, KS

2:05 PM CDT on June 03, 2015 (GMT -0500)
Strother | | Change Station
CLOSE
Current Station
Airport
Location: Winfield,
Elevation: 1158 ft
Nearby Weather Stations

Elev 1158 ft 37.17 °N, 97.04 °W | Updated 11 minutes ago

Clear
Clear
84 °F
Feels Like 88 °F
N
17
Wind Variable Wind from SSE

Today
High -- | Low -- °F
--% Chance of Precip.
Yesterday
High -- | Low -- °F
Precip. -- in
6:05 AM 8:42 PM
Full, 99% visible
Pressure 29.87 in
Visibility 10.0 miles
Clouds Few 4000 ft
Mostly Cloudy 9500 ft
Heat Index 88 °F
Dew Point 69 °F
Humidity 61%
Rainfall 0.00 in
Snow Depth Not available.
UV 6 out of 12
Pollen 7.90 out of 12
Air Quality Not available.
Flu Activity No Activity
METAR KWLD 031854Z AUTO 15015KT 10SM FEW040 BKN095 29/21 A2990 RMK AO2 SLP113 T02890206

More Conditions Fewer Conditions

Pressure 29.87 in
Visibility 10.0 miles
Clouds Few 4000 ft
Mostly Cloudy 9500 ft
Heat Index 88 °F
Dew Point 69 °F
Humidity 61%
Rainfall 0.00 in
Snow Depth Not available.
UV 6 out of 12
Pollen 7.90 out of 12
Air Quality Not available.
Flu Activity No Activity
METAR KWLD 031854Z AUTO 15015KT 10SM FEW040 BKN095 29/21 A2990 RMK AO2 SLP113 T02890206

More Conditions Fewer Conditions

10-Day Weather Forecast

×

Almanac

Astronomy

Jun. 03, 2015 Rise Set
Actual Time
Civil Twilight
Nautical Twilight
Astronomical Twilight
Moon
Length of Visible Light
Length of Day
Tomorrow will be .
, % of the Moon is Illuminated

Today's Extremes

State Highs State Lows

Community

WunderPhotos

Upload Photos

1,826,270 photos uploaded!

WunderBlogs® & News

Nearby

Air Quality

  Air Quality AQ Index Pollutant
Not available.

Snow Depth

Station Depth Elevation

Earthquake Activity

City Distance Mag. Time & Date
Minimum magnitude displayed is 2.5.

Coastal Water Temperatures

Place Temperature

Stations

Nearby Weather Stations

Station Location Temp. Windchill Dew Point Humidity Wind Precip. Elev Updated Type